Time;durP1;ratioP1;P1;durP2;ratioP2;P2;SDS_P1;SDS_P2;PMS_P1;PMS_P2;Temp;Humidity;BMP_temperature;BMP_pressure;BME280_temperature;BME280_humidity;BME280_pressure;Samples;Min_cycle;Max_cycle;Signal;HPM_P1;HPM_P2
2022/08/25 00:00:41;;;;;;;4.40;2.33;;;;;;;22.59;41.33;100666.72;10154915;29;20108;-80
2022/08/25 00:05:45;;;;;;;4.72;2.25;;;;;;;22.54;41.43;100661.81;10160215;29;20055;-79
2022/08/25 00:10:51;;;;;;;3.35;2.08;;;;;;;22.43;42.85;100659.56;10172032;29;20032;-79
2022/08/25 00:16:05;;;;;;;3.60;2.22;;;;;;;22.21;43.68;100659.56;10150942;29;20108;-79
2022/08/25 00:21:09;;;;;;;3.80;2.38;;;;;;;22.10;44.08;100665.53;10169228;29;20051;-78
2022/08/25 00:26:14;;;;;;;6.32;2.40;;;;;;;21.83;44.29;100661.66;10153548;29;20045;-79
2022/08/25 00:31:20;;;;;;;3.33;2.40;;;;;;;21.69;44.69;100649.69;10164085;29;20048;-79
2022/08/25 00:36:23;;;;;;;3.95;2.53;;;;;;;21.64;45.06;100650.28;10167355;29;20060;-79
2022/08/25 00:41:27;;;;;;;5.03;2.67;;;;;;;21.54;45.07;100655.19;10141483;29;20534;-80
2022/08/25 00:46:33;;;;;;;3.92;2.55;;;;;;;21.36;45.77;100652.81;10167400;29;20056;-80
2022/08/25 00:51:41;;;;;;;3.40;2.63;;;;;;;21.32;45.80;100653.41;10158295;29;20079;-80
2022/08/25 00:56:47;;;;;;;3.42;2.70;;;;;;;21.34;45.94;100659.53;10148206;29;20069;-78
2022/08/25 01:01:51;;;;;;;8.30;2.63;;;;;;;21.32;45.59;100654.25;10167804;29;20057;-79
2022/08/25 01:06:55;;;;;;;2.83;2.05;;;;;;;21.30;45.43;100656.31;10147440;29;20136;-80
2022/08/25 01:12:00;;;;;;;8.23;2.40;;;;;;;21.25;45.13;100657.91;10157363;29;20057;-79
2022/08/25 01:17:04;;;;;;;5.68;2.50;;;;;;;21.20;45.47;100664.81;10146721;29;20044;-80
2022/08/25 01:22:42;;;;;;;6.10;2.25;;;;;;;21.15;45.43;100660.94;10149032;29;20048;-79
2022/08/25 01:27:54;;;;;;;4.55;2.40;;;;;;;21.04;45.81;100667.69;10155918;29;20617;-79
2022/08/25 01:33:46;;;;;;;4.30;1.95;;;;;;;20.93;46.53;100662.66;10177384;29;20044;-78
2022/08/25 01:38:51;;;;;;;3.72;2.72;;;;;;;20.83;47.05;100665.66;10168914;29;20049;-78
2022/08/25 01:44:34;;;;;;;3.88;2.50;;;;;;;20.66;47.49;100664.09;10161576;29;20513;-80
2022/08/25 01:50:24;;;;;;;5.28;3.05;;;;;;;20.58;47.26;100658.72;10160300;29;20045;-80
2022/08/25 01:56:15;;;;;;;3.92;2.95;;;;;;;20.59;47.57;100663.13;10142235;29;20048;-80
2022/08/25 02:01:23;;;;;;;4.55;2.63;;;;;;;20.60;47.40;100659.34;10163688;29;20048;-80
2022/08/25 02:06:27;;;;;;;6.53;2.65;;;;;;;20.52;47.47;100652.97;10162844;29;20463;-79
2022/08/25 02:11:35;;;;;;;3.42;2.78;;;;;;;20.46;47.33;100645.50;10164795;29;20045;-79
2022/08/25 02:16:39;;;;;;;3.83;2.65;;;;;;;20.47;47.23;100660.00;10167795;29;20075;-80
2022/08/25 02:21:42;;;;;;;6.43;2.58;;;;;;;20.47;47.15;100662.72;10169847;29;20135;-80
2022/08/25 02:26:47;;;;;;;3.55;2.75;;;;;;;20.44;47.31;100663.94;10152340;29;20112;-80
2022/08/25 02:31:50;;;;;;;7.60;3.00;;;;;;;20.34;47.60;100658.72;10174243;29;20073;-80
2022/08/25 02:36:53;;;;;;;10.18;3.00;;;;;;;20.30;47.50;100660.09;10152708;29;20055;-80
2022/08/25 02:41:58;;;;;;;4.88;2.53;;;;;;;20.23;47.96;100658.25;10185197;29;20103;-77
2022/08/25 02:47:01;;;;;;;4.38;2.83;;;;;;;20.19;47.76;100652.31;10170057;29;20056;-79
2022/08/25 02:52:04;;;;;;;7.57;2.65;;;;;;;20.20;48.10;100642.25;10159547;29;20052;-79
2022/08/25 02:57:10;;;;;;;4.47;2.88;;;;;;;20.11;48.14;100642.31;10165657;29;20048;-79
2022/08/25 03:02:13;;;;;;;6.68;3.30;;;;;;;19.98;48.66;100649.41;10144045;29;20048;-80
2022/08/25 03:07:16;;;;;;;4.53;2.60;;;;;;;19.88;48.83;100655.06;10144997;29;20097;-77
2022/08/25 03:12:21;;;;;;;5.03;2.47;;;;;;;19.82;49.46;100655.78;10172977;29;20053;-77
2022/08/25 03:17:24;;;;;;;3.05;2.65;;;;;;;19.83;49.26;100650.16;10182650;29;20669;-80
2022/08/25 03:22:27;;;;;;;4.53;3.15;;;;;;;19.74;49.20;100658.53;10153293;29;20131;-79
2022/08/25 03:27:31;;;;;;;4.38;2.88;;;;;;;19.61;49.60;100649.09;10151787;29;20040;-80
2022/08/25 03:32:34;;;;;;;8.02;3.35;;;;;;;19.48;49.70;100656.09;10171534;29;20379;-80
2022/08/25 03:37:37;;;;;;;5.45;3.20;;;;;;;19.52;49.59;100665.59;10165736;29;20055;-79
2022/08/25 03:42:42;;;;;;;3.42;3.10;;;;;;;19.39;49.83;100657.97;10160468;29;20056;-80
2022/08/25 03:47:48;;;;;;;3.17;2.88;;;;;;;19.39;50.11;100652.53;10156765;29;20115;-79
2022/08/25 03:52:53;;;;;;;4.70;3.20;;;;;;;19.38;49.99;100653.56;10160828;29;20474;-80
2022/08/25 03:57:57;;;;;;;5.07;3.33;;;;;;;19.30;50.20;100648.13;10142556;29;20104;-80
2022/08/25 04:03:00;;;;;;;5.20;3.60;;;;;;;19.33;50.46;100643.19;10161052;29;20057;-77
2022/08/25 04:08:03;;;;;;;4.40;3.40;;;;;;;19.35;50.78;100627.53;10174405;29;20240;-79
2022/08/25 04:13:07;;;;;;;4.93;3.30;;;;;;;19.07;51.03;100620.81;10147033;29;20055;-78
2022/08/25 04:18:12;;;;;;;5.47;3.83;;;;;;;18.83;51.45;100616.28;10136673;29;20053;-79
2022/08/25 04:23:15;;;;;;;7.45;3.47;;;;;;;18.70;52.22;100619.47;10150824;29;20055;-79
2022/08/25 04:28:23;;;;;;;5.00;3.13;;;;;;;18.61;52.43;100626.81;10176700;29;20115;-79
2022/08/25 04:33:26;;;;;;;3.63;2.97;;;;;;;18.59;52.54;100617.94;10140073;29;20057;-78
2022/08/25 04:38:29;;;;;;;7.82;3.42;;;;;;;18.60;52.92;100618.84;10161106;29;20104;-78
2022/08/25 04:43:34;;;;;;;5.97;3.28;;;;;;;18.65;52.65;100625.47;10159391;29;20081;-78
2022/08/25 04:48:39;;;;;;;5.13;3.70;;;;;;;18.67;52.62;100617.09;10160895;29;20111;-78
2022/08/25 04:53:43;;;;;;;6.05;3.15;;;;;;;18.69;52.65;100617.78;10157659;29;20049;-79
2022/08/25 04:58:47;;;;;;;7.30;3.65;;;;;;;18.83;52.56;100611.66;10160957;29;20055;-78
2022/08/25 05:03:54;;;;;;;10.18;3.72;;;;;;;18.87;52.52;100609.44;10156070;29;20412;-77
2022/08/25 05:08:58;;;;;;;3.92;3.40;;;;;;;19.03;52.24;100612.13;10157150;29;20549;-78
2022/08/25 05:14:03;;;;;;;5.28;3.65;;;;;;;19.09;52.25;100607.84;10168505;29;20056;-78
2022/08/25 05:19:07;;;;;;;3.72;3.40;;;;;;;18.93;52.37;100606.06;10166619;29;20057;-79
2022/08/25 05:24:10;;;;;;;8.25;3.53;;;;;;;18.95;52.63;100610.31;10166355;29;20059;-78
2022/08/25 05:29:14;;;;;;;5.85;3.35;;;;;;;19.01;52.89;100614.19;10169158;29;20087;-78
2022/08/25 05:34:18;;;;;;;6.22;3.53;;;;;;;19.11;52.95;100617.56;10155849;29;20045;-79
2022/08/25 05:39:21;;;;;;;10.25;4.47;;;;;;;19.12;52.98;100618.44;10163706;29;20051;-79
2022/08/25 05:44:27;;;;;;;6.38;3.85;;;;;;;19.24;52.99;100612.41;10158397;29;20049;-79
2022/08/25 05:49:29;;;;;;;9.90;4.07;;;;;;;19.29;53.10;100617.34;10170757;29;20048;-79
2022/08/25 05:54:32;;;;;;;7.13;3.95;;;;;;;19.43;52.96;100630.22;10171153;29;20048;-79
2022/08/25 05:59:36;;;;;;;7.63;3.70;;;;;;;19.46;52.85;100623.56;10142698;29;20050;-79
2022/08/25 06:04:39;;;;;;;8.15;3.88;;;;;;;19.70;52.71;100629.97;10142173;29;20573;-79
2022/08/25 06:09:44;;;;;;;6.93;3.83;;;;;;;19.92;52.44;100640.06;10145671;29;20414;-79
2022/08/25 06:14:49;;;;;;;7.47;3.70;;;;;;;20.33;52.09;100616.09;10149992;29;20044;-79
2022/08/25 06:19:53;;;;;;;5.90;3.78;;;;;;;20.70;51.96;100616.28;10154178;29;20063;-78
2022/08/25 06:24:56;;;;;;;6.13;4.00;;;;;;;20.98;52.00;100611.91;10154408;29;20506;-78
2022/08/25 06:30:03;;;;;;;8.60;4.30;;;;;;;21.14;51.33;100593.66;10164676;29;20044;-77
2022/08/25 06:35:12;;;;;;;4.93;3.58;;;;;;;21.33;51.21;100598.56;10181963;29;20056;-79
2022/08/25 06:40:16;;;;;;;7.90;4.22;;;;;;;21.57;50.77;100594.66;10149266;29;20048;-78
2022/08/25 06:45:21;;;;;;;9.00;3.78;;;;;;;21.84;51.07;100595.00;10163432;29;20048;-80
2022/08/25 06:50:24;;;;;;;10.07;3.72;;;;;;;22.13;50.33;100591.28;10185256;29;20048;-79
2022/08/25 06:55:27;;;;;;;5.68;4.30;;;;;;;22.33;50.32;100592.34;10178890;29;20151;-76
2022/08/25 07:00:32;;;;;;;11.43;4.60;;;;;;;22.62;49.88;100595.97;10176434;29;20048;-79
2022/08/25 07:05:35;;;;;;;9.45;4.20;;;;;;;23.01;49.68;100600.06;10176094;29;20048;-78
2022/08/25 07:10:46;;;;;;;6.00;3.83;;;;;;;23.42;48.64;100600.09;10171048;29;20059;-78
2022/08/25 07:15:55;;;;;;;10.00;4.32;;;;;;;23.78;48.78;100598.13;10168677;29;20116;-78
2022/08/25 07:20:58;;;;;;;6.68;4.43;;;;;;;24.12;47.73;100599.09;10167099;29;20653;-78
2022/08/25 07:26:08;;;;;;;7.47;4.60;;;;;;;24.17;47.86;100594.66;10169960;29;20052;-78
2022/08/25 07:31:24;;;;;;;8.65;4.53;;;;;;;24.09;48.02;100597.59;10153480;29;20041;-79
2022/08/25 07:36:32;;;;;;;7.25;4.85;;;;;;;24.65;47.18;100591.72;10149810;29;20045;-78
2022/08/25 07:41:38;;;;;;;12.38;6.15;;;;;;;24.54;47.39;100595.94;10167603;29;20071;-79
2022/08/25 07:46:42;;;;;;;14.13;6.38;;;;;;;24.93;47.37;100597.00;10159960;29;20100;-78
2022/08/25 07:51:47;;;;;;;6.93;5.63;;;;;;;25.24;46.96;100603.72;10168562;29;20053;-79
2022/08/25 07:57:09;;;;;;;11.50;6.35;;;;;;;25.22;46.96;100603.06;10159259;29;20053;-79
2022/08/25 08:02:13;;;;;;;7.45;5.25;;;;;;;25.60;46.89;100605.06;10168033;29;20045;-79
2022/08/25 08:07:23;;;;;;;8.68;6.15;;;;;;;26.14;45.92;100609.25;10180409;29;20072;-79
2022/08/25 08:12:45;;;;;;;11.43;6.88;;;;;;;26.51;45.29;100603.91;10170812;29;20123;-79
2022/08/25 08:17:50;;;;;;;8.57;6.57;;;;;;;26.53;45.56;100607.28;10170449;29;20458;-79
2022/08/25 08:22:53;;;;;;;12.20;6.90;;;;;;;26.56;45.29;100597.72;10169985;29;20181;-79
2022/08/25 08:27:56;;;;;;;10.55;7.40;;;;;;;26.76;45.55;100598.38;10169538;29;20439;-79
2022/08/25 08:33:01;;;;;;;9.43;7.30;;;;;;;26.76;45.57;100597.53;10171585;29;20116;-79
2022/08/25 08:38:14;;;;;;;9.90;8.32;;;;;;;27.55;44.79;100591.19;10166196;29;20107;-79
2022/08/25 08:43:24;;;;;;;12.50;8.43;;;;;;;29.11;41.63;100590.25;10163304;29;20096;-79
2022/08/25 08:48:44;;;;;;;17.33;8.27;;;;;;;28.61;41.83;100588.81;10148763;29;20073;-78
2022/08/25 08:53:54;;;;;;;10.82;7.97;;;;;;;27.94;43.17;100586.19;10138272;29;20040;-78
2022/08/25 08:59:03;;;;;;;10.65;7.93;;;;;;;28.38;42.18;100584.03;10157936;29;20045;-77
2022/08/25 09:04:18;;;;;;;8.73;7.93;;;;;;;28.42;42.32;100570.63;10163706;29;20055;-78
2022/08/25 09:09:26;;;;;;;16.77;9.00;;;;;;;28.53;42.41;100566.22;10140423;29;20052;-77
2022/08/25 09:14:42;;;;;;;11.02;7.90;;;;;;;28.71;41.32;100558.63;10144208;29;20052;-78
2022/08/25 09:20:11;;;;;;;10.77;7.72;;;;;;;29.06;41.00;100567.97;10173769;29;20048;-78
2022/08/25 09:25:26;;;;;;;9.57;7.90;;;;;;;28.74;40.89;100568.34;10172619;29;20083;-78
2022/08/25 09:30:55;;;;;;;9.73;7.90;;;;;;;29.25;40.70;100543.81;10172174;29;20068;-77
2022/08/25 09:36:00;;;;;;;13.32;7.78;;;;;;;29.49;39.55;100537.13;10151140;29;20574;-77
2022/08/25 09:41:10;;;;;;;12.35;7.78;;;;;;;29.42;39.38;100535.56;10145593;29;20036;-78
2022/08/25 09:46:14;;;;;;;10.60;8.10;;;;;;;29.86;39.55;100524.81;10161029;29;20096;-80
2022/08/25 09:51:25;;;;;;;10.13;7.72;;;;;;;29.73;39.48;100512.13;10193478;29;20080;-78
2022/08/25 09:56:31;;;;;;;12.38;8.00;;;;;;;30.18;39.32;100503.81;10194875;29;20056;-79
2022/08/25 10:01:34;;;;;;;10.10;8.32;;;;;;;30.23;38.49;100501.13;10167392;29;20123;-80
2022/08/25 10:06:45;;;;;;;10.88;7.90;;;;;;;30.96;37.60;100491.91;10166262;29;20056;-80
2022/08/25 10:11:51;;;;;;;10.73;8.05;;;;;;;31.84;36.98;100483.50;10166368;29;20049;-80
2022/08/25 10:17:14;;;;;;;10.87;8.73;;;;;;;31.35;37.20;100474.13;10143090;29;20093;-80
2022/08/25 10:22:25;;;;;;;10.38;8.55;;;;;;;31.61;37.27;100466.06;10167675;29;20077;-80
2022/08/25 10:27:36;;;;;;;10.48;8.25;;;;;;;31.71;36.41;100443.97;10142219;29;20052;-80
2022/08/25 10:32:58;;;;;;;8.77;7.70;;;;;;;31.88;35.98;100434.69;10165247;23;20439;-80
2022/08/25 10:38:26;;;;;;;9.80;8.20;;;;;;;31.77;36.41;100436.53;10075473;29;20052;-79
2022/08/25 10:43:36;;;;;;;13.82;8.32;;;;;;;31.98;35.26;100415.28;10085363;29;20073;-79
2022/08/25 10:48:51;;;;;;;9.77;8.77;;;;;;;31.58;35.90;100417.44;10069778;29;20049;-80
2022/08/25 10:54:05;;;;;;;7.82;7.13;;;;;;;31.73;35.57;100402.91;10077074;29;20074;-79
2022/08/25 10:59:39;;;;;;;9.27;8.27;;;;;;;32.63;34.50;100399.31;10077678;29;20396;-79
2022/08/25 11:04:47;;;;;;;9.40;8.15;;;;;;;32.35;34.30;100397.78;10084064;29;20104;-80
2022/08/25 11:09:57;;;;;;;9.65;8.07;;;;;;;32.48;33.72;100397.31;10091956;29;20053;-80
2022/08/25 11:15:06;;;;;;;13.27;7.80;;;;;;;33.36;33.18;100374.25;10111503;29;20519;-80
2022/08/25 11:20:16;;;;;;;11.75;7.30;;;;;;;35.23;30.62;100375.19;10086082;29;20514;-79
2022/08/25 11:25:35;;;;;;;13.15;8.48;;;;;;;34.31;32.05;100372.81;10091368;29;20076;-78
2022/08/25 11:30:38;;;;;;;11.90;8.60;;;;;;;33.32;33.19;100382.34;10091380;29;20067;-78
2022/08/25 11:35:47;;;;;;;9.68;7.05;;;;;;;32.27;33.88;100371.34;10078979;29;20084;-79
2022/08/25 11:41:04;;;;;;;10.30;7.35;;;;;;;34.09;31.59;100368.44;10088385;29;20041;-79
2022/08/25 11:46:34;;;;;;;10.52;7.97;;;;;;;34.48;31.34;100366.91;10087794;29;20500;-80
2022/08/25 11:51:42;;;;;;;14.10;8.63;;;;;;;33.95;31.82;100367.28;10089246;29;20055;-80
2022/08/25 11:56:56;;;;;;;10.65;7.65;;;;;;;32.13;33.89;100365.41;10086378;29;20076;-79
2022/08/25 12:02:01;;;;;;;9.65;7.22;;;;;;;32.48;33.46;100360.34;10077331;29;20045;-80
2022/08/25 12:07:30;;;;;;;9.82;8.52;;;;;;;31.26;36.15;100364.69;10097916;29;20454;-80
2022/08/25 12:12:39;;;;;;;11.32;8.15;;;;;;;31.76;35.14;100351.53;10096924;29;20054;-77
2022/08/25 12:17:42;;;;;;;14.18;8.65;;;;;;;32.14;34.04;100357.91;10067289;29;20050;-81
2022/08/25 12:22:58;;;;;;;11.15;7.75;;;;;;;33.38;32.65;100354.47;10068059;29;20057;-81
2022/08/25 12:28:15;;;;;;;9.40;7.28;;;;;;;33.52;31.27;100350.88;10069195;29;20054;-79
2022/08/25 12:33:41;;;;;;;13.57;8.30;;;;;;;31.79;35.13;100353.81;10101195;29;20045;-81
2022/08/25 12:38:48;;;;;;;11.25;8.13;;;;;;;34.55;32.29;100340.41;10092131;29;20055;-81
2022/08/25 12:44:15;;;;;;;10.98;8.23;;;;;;;33.46;32.66;100351.16;10105964;29;20045;-80
2022/08/25 12:49:34;;;;;;;14.82;7.90;;;;;;;32.73;33.75;100351.28;10100843;29;20076;-81
2022/08/25 12:54:49;;;;;;;9.77;7.15;;;;;;;32.06;34.64;100347.28;10079355;29;20060;-80
2022/08/25 12:59:57;;;;;;;13.13;7.82;;;;;;;32.28;34.24;100336.91;10074774;29;20057;-81
2022/08/25 13:05:28;;;;;;;9.57;7.50;;;;;;;33.93;31.86;100334.16;10121948;29;20049;-81
2022/08/25 13:10:46;;;;;;;13.45;7.30;;;;;;;34.25;31.63;100313.44;10095659;29;20454;-82
2022/08/25 13:16:00;;;;;;;10.43;7.50;;;;;;;36.00;29.56;100307.53;10103771;29;20057;-81
2022/08/25 13:21:10;;;;;;;7.78;6.68;;;;;;;36.58;29.22;100299.81;10114046;29;20052;-80
2022/08/25 13:26:15;;;;;;;10.63;6.82;;;;;;;35.56;29.74;100294.53;10110549;29;20049;-80
2022/08/25 13:31:26;;;;;;;9.23;6.63;;;;;;;36.56;28.86;100281.66;10105782;29;20052;-80
2022/08/25 13:42:05;;;;;;;12.73;6.60;;;;;;;36.27;28.40;100267.78;10114434;29;20073;-80
2022/08/25 13:47:13;;;;;;;6.80;6.20;;;;;;;35.99;28.79;100269.53;10112503;29;20056;-81
2022/08/25 13:52:24;;;;;;;11.60;6.43;;;;;;;36.59;27.88;100255.91;10109750;29;20144;-82
2022/08/25 13:57:32;;;;;;;12.40;6.35;;;;;;;36.04;28.36;100247.09;10095837;29;20077;-82
2022/08/25 14:02:46;;;;;;;11.00;6.10;;;;;;;35.64;28.42;100250.03;10082838;29;20074;-81
2022/08/25 14:07:53;;;;;;;9.85;5.93;;;;;;;35.48;28.43;100238.19;10086641;29;20120;-80
2022/08/25 14:13:30;;;;;;;9.07;5.68;;;;;;;35.73;28.26;100237.06;10064769;29;20120;-78
2022/08/25 14:18:35;;;;;;;9.50;6.13;;;;;;;36.68;27.71;100233.66;10039851;29;20129;-77
2022/08/25 14:23:39;;;;;;;10.75;6.15;;;;;;;36.23;27.78;100219.16;10043790;29;20052;-79
2022/08/25 14:28:42;;;;;;;9.52;6.03;;;;;;;36.39;27.84;100229.88;10065096;29;20081;-79
2022/08/25 14:33:58;;;;;;;6.38;5.68;;;;;;;36.10;27.07;100217.97;10052961;29;20101;-78
2022/08/25 14:39:04;;;;;;;8.73;6.00;;;;;;;35.46;28.67;100217.25;10041238;29;21883;-78
2022/08/25 14:44:11;;;;;;;10.32;6.00;;;;;;;35.78;28.78;100205.47;10062304;29;20140;-79
2022/08/25 14:49:21;;;;;;;12.10;5.60;;;;;;;35.89;28.25;100204.22;10063154;29;20800;-79
2022/08/25 14:54:27;;;;;;;11.32;6.20;;;;;;;34.40;29.42;100206.63;10063503;29;20064;-78
2022/08/25 14:59:31;;;;;;;7.43;5.75;;;;;;;34.37;29.62;100201.66;10058776;29;20053;-78
2022/08/25 15:04:36;;;;;;;7.60;6.32;;;;;;;35.17;28.82;100194.94;10023830;29;20194;-78
2022/08/25 15:09:39;;;;;;;7.72;5.50;;;;;;;34.59;29.36;100187.31;10063314;29;20053;-78
2022/08/25 15:14:42;;;;;;;8.45;5.57;;;;;;;34.67;29.53;100185.84;10045864;29;20046;-79
2022/08/25 15:19:48;;;;;;;7.90;6.00;;;;;;;34.30;29.91;100185.22;10038799;29;20059;-77
2022/08/25 15:24:51;;;;;;;8.98;5.72;;;;;;;34.95;29.40;100175.88;10047716;29;20083;-78
2022/08/25 15:29:54;;;;;;;8.68;6.25;;;;;;;33.84;29.71;100182.63;10047565;29;20061;-78
2022/08/25 15:35:00;;;;;;;8.45;6.00;;;;;;;32.38;31.43;100170.19;10046519;29;20059;-79
2022/08/25 15:40:04;;;;;;;8.10;6.03;;;;;;;33.55;30.53;100162.97;10048601;29;20063;-79
2022/08/25 15:45:10;;;;;;;8.70;6.13;;;;;;;32.86;31.00;100162.50;10054771;29;20526;-78
2022/08/25 15:50:19;;;;;;;10.18;7.00;;;;;;;33.58;30.30;100161.56;10060109;29;21589;-80
2022/08/25 15:55:27;;;;;;;12.25;5.88;;;;;;;33.78;30.07;100161.50;10052533;29;20064;-80
2022/08/25 16:00:30;;;;;;;9.20;6.22;;;;;;;33.76;29.83;100156.22;10062443;29;20053;-80
2022/08/25 16:05:36;;;;;;;11.48;5.90;;;;;;;33.27;30.48;100153.28;10047141;29;20061;-79
2022/08/25 16:10:41;;;;;;;8.77;5.60;;;;;;;33.63;29.86;100153.22;10050143;29;20426;-78
2022/08/25 16:15:48;;;;;;;8.55;5.97;;;;;;;33.70;30.14;100154.56;10041781;29;20086;-80
2022/08/25 16:20:57;;;;;;;;;;;;;;;33.55;29.99;100146.25;10050586;29;20097;-79
2022/08/25 16:26:04;;;;;;;8.38;5.63;;;;;;;33.55;30.15;100137.91;10059137;29;20301;-79
2022/08/25 16:31:09;;;;;;;7.97;5.55;;;;;;;33.17;30.42;100140.22;10064219;29;20101;-80
2022/08/25 16:36:16;;;;;;;14.07;7.50;;;;;;;33.33;30.62;100141.03;10060473;29;21210;-79
2022/08/25 16:41:22;;;;;;;8.77;6.00;;;;;;;32.91;30.85;100144.94;10059576;29;20056;-80
2022/08/25 16:46:26;;;;;;;9.15;6.32;;;;;;;32.80;30.97;100133.03;10057141;29;20144;-80
2022/08/25 16:51:30;;;;;;;9.52;6.18;;;;;;;32.76;31.14;100129.13;10060306;29;20053;-80
2022/08/25 16:56:36;;;;;;;11.70;5.85;;;;;;;32.67;31.48;100128.84;10068003;29;20065;-80
2022/08/25 17:01:41;;;;;;;10.27;5.80;;;;;;;32.58;31.54;100127.72;10057177;29;20041;-80
2022/08/25 17:06:48;;;;;;;7.70;5.68;;;;;;;32.28;31.63;100124.88;10057565;29;20054;-80
2022/08/25 17:11:55;;;;;;;11.60;6.15;;;;;;;32.19;31.93;100128.19;10058425;29;20053;-78
2022/08/25 17:16:58;;;;;;;10.85;5.85;;;;;;;32.22;32.09;100127.63;10061603;29;20061;-80
2022/08/25 17:22:06;;;;;;;12.02;6.38;;;;;;;31.80;32.93;100119.47;10062926;29;20045;-79
2022/08/25 17:27:11;;;;;;;8.40;6.55;;;;;;;31.51;33.56;100121.78;10050255;29;20056;-79
2022/08/25 17:32:14;;;;;;;9.93;7.00;;;;;;;31.02;34.47;100128.44;10078571;29;20071;-76
2022/08/25 17:37:18;;;;;;;10.00;6.85;;;;;;;30.51;34.83;100125.22;10083473;29;20068;-78
2022/08/25 17:42:23;;;;;;;8.60;6.47;;;;;;;30.18;35.25;100129.88;10062743;29;20061;-77
2022/08/25 17:47:32;;;;;;;7.45;6.38;;;;;;;30.09;35.83;100127.78;10055200;29;20706;-73
2022/08/25 17:52:36;;;;;;;11.98;6.85;;;;;;;29.87;35.77;100136.13;10053932;29;20077;-76
2022/08/25 17:57:40;;;;;;;7.50;6.50;;;;;;;29.55;35.95;100139.59;10035178;29;20053;-77
2022/08/25 18:02:42;;;;;;;10.77;6.85;;;;;;;29.35;36.89;100142.94;10043175;29;20057;-77
2022/08/25 18:07:47;;;;;;;11.15;6.00;;;;;;;29.17;36.76;100144.03;10040158;29;20068;-77
2022/08/25 18:12:50;;;;;;;8.73;6.25;;;;;;;28.91;37.00;100145.56;10036523;29;20665;-75
2022/08/25 18:17:55;;;;;;;6.50;5.88;;;;;;;28.69;37.34;100143.53;10044776;29;20065;-76
2022/08/25 18:23:00;;;;;;;8.73;6.28;;;;;;;28.56;38.12;100141.09;10042919;29;20067;-75
2022/08/25 18:28:04;;;;;;;9.95;6.00;;;;;;;28.43;38.23;100144.97;10046982;29;20058;-75
2022/08/25 18:33:07;;;;;;;11.38;6.32;;;;;;;28.30;38.09;100145.28;10045551;29;20060;-76
2022/08/25 18:43:35;;;;;;;8.68;6.60;;;;;;;28.06;39.16;100147.31;10043313;29;20051;-76
2022/08/25 18:48:38;;;;;;;8.50;6.63;;;;;;;27.90;38.97;100150.84;10029728;29;20051;-76
2022/08/25 18:53:45;;;;;;;10.68;6.38;;;;;;;27.82;39.62;100160.31;10038105;29;20068;-76
2022/08/25 18:58:52;;;;;;;6.72;6.03;;;;;;;27.67;39.80;100154.47;10027452;29;20068;-76
2022/08/25 19:03:55;;;;;;;8.82;6.30;;;;;;;27.56;40.35;100156.16;10042128;29;20053;-76
2022/08/25 19:08:59;;;;;;;9.00;6.88;;;;;;;27.36;40.62;100157.38;10034519;29;20068;-76
2022/08/25 19:14:03;;;;;;;10.63;7.22;;;;;;;27.21;41.18;100156.16;10040283;29;20063;-76
2022/08/25 19:19:14;;;;;;;13.63;7.03;;;;;;;27.08;41.10;100160.03;10036818;29;21192;-75
2022/08/25 19:24:19;;;;;;;8.75;6.72;;;;;;;26.97;41.52;100152.59;10034273;29;20049;-75
2022/08/25 19:29:23;;;;;;;14.50;6.85;;;;;;;26.86;41.71;100155.09;10044688;29;20053;-75
2022/08/25 19:34:30;;;;;;;10.52;7.50;;;;;;;26.83;42.20;100158.31;10040378;29;20060;-76
2022/08/25 19:39:35;;;;;;;9.75;6.85;;;;;;;26.61;43.05;100165.44;10045799;29;20132;-77
2022/08/25 19:44:42;;;;;;;9.63;6.50;;;;;;;26.52;43.30;100162.16;10027262;29;21286;-76
2022/08/25 19:49:46;;;;;;;14.27;7.82;;;;;;;26.44;43.34;100163.34;10043967;29;20431;-76
2022/08/25 19:54:52;;;;;;;10.35;7.20;;;;;;;26.34;43.89;100167.75;10045667;29;20157;-77
2022/08/25 19:59:55;;;;;;;8.10;6.85;;;;;;;26.24;44.09;100171.88;10046809;29;20147;-76
2022/08/25 20:04:59;;;;;;;8.57;7.35;;;;;;;26.14;44.09;100171.59;10042282;29;20056;-76
2022/08/25 20:10:05;;;;;;;10.57;7.75;;;;;;;26.03;44.21;100170.47;10047117;29;20140;-76
2022/08/25 20:15:09;;;;;;;13.40;7.55;;;;;;;26.03;44.13;100177.88;10043226;29;20452;-76
2022/08/25 20:20:14;;;;;;;14.27;8.30;;;;;;;25.91;44.53;100177.78;10046075;29;20586;-77
2022/08/25 20:25:21;;;;;;;9.63;8.25;;;;;;;25.76;44.74;100172.69;10046009;29;20053;-77
2022/08/25 20:30:26;;;;;;;13.10;8.30;;;;;;;25.66;45.29;100180.63;10048079;29;20045;-77
2022/08/25 20:35:30;;;;;;;9.77;7.68;;;;;;;25.58;45.47;100184.50;10058335;29;20053;-77
2022/08/25 20:40:34;;;;;;;10.20;7.82;;;;;;;25.59;45.68;100182.59;10048144;29;20602;-77
2022/08/25 20:45:39;;;;;;;13.15;8.60;;;;;;;25.61;45.55;100180.44;10052790;29;20053;-78
2022/08/25 20:50:42;;;;;;;13.02;8.68;;;;;;;25.52;45.83;100181.81;10050429;29;20143;-78
2022/08/25 20:55:47;;;;;;;14.52;7.75;;;;;;;25.46;45.91;100180.84;10048975;29;20061;-77
2022/08/25 21:00:49;;;;;;;10.38;7.97;;;;;;;25.44;46.12;100184.88;10055064;29;20565;-78
2022/08/25 21:05:54;;;;;;;9.93;8.32;;;;;;;25.38;46.36;100181.97;10074147;29;20463;-77
2022/08/25 21:10:58;;;;;;;12.95;8.77;;;;;;;25.33;46.49;100180.97;10097529;29;20503;-77
2022/08/25 21:16:01;;;;;;;13.25;8.75;;;;;;;25.27;46.82;100179.97;10085512;29;20054;-77
2022/08/25 21:21:12;;;;;;;12.13;8.65;;;;;;;25.15;46.77;100181.75;10080446;29;20461;-77
2022/08/25 21:26:19;;;;;;;10.32;8.63;;;;;;;25.02;47.29;100184.63;10085360;29;20041;-77
2022/08/25 21:31:22;;;;;;;17.20;9.00;;;;;;;24.94;47.77;100177.50;10079861;29;20487;-77
2022/08/25 21:36:29;;;;;;;12.27;8.82;;;;;;;24.72;48.28;100182.53;10080576;29;20045;-78
2022/08/25 21:41:35;;;;;;;15.18;9.35;;;;;;;24.61;48.36;100175.00;10091837;29;20052;-77
2022/08/25 21:46:39;;;;;;;12.05;9.05;;;;;;;24.57;48.60;100179.25;10070451;29;20140;-77
2022/08/25 21:51:44;;;;;;;11.20;8.80;;;;;;;24.58;48.61;100181.78;10080014;29;20052;-77
2022/08/25 21:56:52;;;;;;;13.13;8.80;;;;;;;24.47;49.00;100179.75;10082946;29;20045;-77
2022/08/25 22:01:56;;;;;;;14.30;8.27;;;;;;;24.42;48.82;100174.06;10074457;29;20109;-77
2022/08/25 22:07:00;;;;;;;13.85;9.18;;;;;;;24.39;48.93;100174.47;10091991;29;20048;-77
2022/08/25 22:12:06;;;;;;;11.88;9.23;;;;;;;24.41;48.98;100177.84;10082571;29;20059;-77
2022/08/25 22:17:08;;;;;;;13.00;9.20;;;;;;;24.24;49.70;100174.75;10072048;29;20045;-77
2022/08/25 22:22:19;;;;;;;16.92;8.98;;;;;;;24.05;50.50;100169.19;10080367;29;20487;-77
2022/08/25 22:27:24;;;;;;;14.73;9.60;;;;;;;23.97;50.55;100174.03;10068306;29;20045;-76
2022/08/25 22:32:27;;;;;;;12.15;9.50;;;;;;;23.91;51.00;100169.44;10076011;29;20109;-76
2022/08/25 22:37:29;;;;;;;15.02;9.30;;;;;;;23.83;51.45;100168.66;10069455;29;20821;-76
2022/08/25 22:42:37;;;;;;;11.60;9.77;;;;;;;23.71;51.80;100164.84;10081159;29;20049;-77
2022/08/25 22:47:39;;;;;;;17.33;9.68;;;;;;;23.72;51.77;100174.75;10073847;29;20041;-77
2022/08/25 22:52:43;;;;;;;10.60;9.45;;;;;;;23.63;51.95;100171.41;10083864;29;20169;-77
2022/08/25 22:57:48;;;;;;;10.13;9.13;;;;;;;23.54;52.13;100175.44;10081305;29;20045;-77
2022/08/25 23:02:56;;;;;;;12.50;9.73;;;;;;;23.47;52.50;100171.88;10075768;29;20047;-77
2022/08/25 23:07:59;;;;;;;13.52;10.13;;;;;;;23.39;52.42;100172.97;10073037;29;20128;-77
2022/08/25 23:13:03;;;;;;;17.08;9.57;;;;;;;23.38;52.42;100164.94;10070415;29;20052;-77
2022/08/25 23:18:09;;;;;;;13.32;10.10;;;;;;;23.43;52.35;100159.66;10081896;29;20109;-77
2022/08/25 23:23:12;;;;;;;14.75;9.48;;;;;;;23.50;51.65;100160.47;10070324;29;20056;-77
2022/08/25 23:28:17;;;;;;;10.15;9.10;;;;;;;23.39;51.89;100152.91;10081588;29;20420;-77
2022/08/25 23:33:20;;;;;;;16.48;9.18;;;;;;;23.36;52.14;100156.09;10076715;29;20053;-77
2022/08/25 23:38:23;;;;;;;16.75;9.75;;;;;;;23.31;52.45;100154.00;10075931;29;20048;-77